Time;durP1;ratioP1;P1;durP2;ratioP2;P2;SDS_P1;SDS_P2;PMS_P1;PMS_P2;Temp;Humidity;BMP_temperature;BMP_pressure;BME280_temperature;BME280_humidity;BME280_pressure;Samples;Min_cycle;Max_cycle;Signal;HPM_P1;HPM_P2
2022/08/03 00:02:14;;;;;;;7.80;4.00;;;;;;;;;;5049487;28;20033;-76
2022/08/03 00:04:39;;;;;;;6.00;2.57;;;;;;;;;;5027789;28;20095;-77
2022/08/03 00:07:04;;;;;;;4.90;2.00;;;;;;;;;;5033575;28;20318;-76
2022/08/03 00:09:30;;;;;;;9.93;1.70;;;;;;;;;;5048477;28;20105;-75
2022/08/03 00:11:55;;;;;;;10.13;2.63;;;;;;;;;;5050149;28;20030;-78
2022/08/03 00:14:20;;;;;;;10.88;3.22;;;;;;;;;;5034620;28;20040;-77
2022/08/03 00:16:45;;;;;;;9.10;3.10;;;;;;;;;;5035433;28;20132;-74
2022/08/03 00:19:11;;;;;;;7.70;2.53;;;;;;;;;;5034893;28;20025;-75
2022/08/03 00:21:36;;;;;;;6.80;2.47;;;;;;;;;;5046737;28;20033;-76
2022/08/03 00:24:01;;;;;;;5.20;2.42;;;;;;;;;;5034413;28;20026;-75
2022/08/03 00:26:26;;;;;;;6.47;2.08;;;;;;;;;;5033341;28;20477;-76
2022/08/03 00:28:55;;;;;;;7.25;2.58;;;;;;;;;;5032936;28;20107;-75
2022/08/03 00:31:20;;;;;;;7.07;2.42;;;;;;;;;;5034858;28;20021;-76
2022/08/03 00:33:45;;;;;;;4.47;2.15;;;;;;;;;;5034341;28;20021;-76
2022/08/03 00:36:10;;;;;;;9.27;2.70;;;;;;;;;;5031213;28;20060;-77
2022/08/03 00:38:35;;;;;;;8.40;3.17;;;;;;;;;;5034752;28;20279;-76
2022/08/03 00:41:01;;;;;;;8.47;2.50;;;;;;;;;;5035571;28;20317;-76
2022/08/03 00:43:26;;;;;;;6.07;2.67;;;;;;;;;;5033380;28;20703;-76
2022/08/03 00:45:53;;;;;;;4.50;2.45;;;;;;;;;;5047389;28;20367;-75
2022/08/03 00:48:18;;;;;;;16.20;3.38;;;;;;;;;;5050440;28;20071;-76
2022/08/03 00:50:43;;;;;;;6.65;3.25;;;;;;;;;;5049525;28;20017;-76
2022/08/03 00:53:11;;;;;;;6.38;2.50;;;;;;;;;;5049280;28;20026;-75
2022/08/03 00:55:37;;;;;;;7.18;4.32;;;;;;;;;;5040769;28;20473;-74
2022/08/03 00:58:05;;;;;;;7.90;2.67;;;;;;;;;;5034482;28;20028;-76
2022/08/03 01:00:31;;;;;;;11.02;3.53;;;;;;;;;;5034869;28;20056;-76
2022/08/03 01:02:57;;;;;;;7.60;2.45;;;;;;;;;;5041850;28;20037;-77
2022/08/03 01:05:22;;;;;;;8.63;3.67;;;;;;;;;;5024041;28;20021;-75
2022/08/03 01:08:03;;;;;;;7.70;2.42;;;;;;;;;;5032609;28;20259;-75
2022/08/03 01:10:35;;;;;;;11.43;2.75;;;;;;;;;;5034112;28;20419;-74
2022/08/03 01:13:00;;;;;;;;;;;;;;;;;;5037965;28;20068;-76
2022/08/03 01:15:41;;;;;;;7.85;2.50;;;;;;;;;;5058351;28;19955;-75
2022/08/03 01:18:29;;;;;;;7.20;3.28;;;;;;;;;;5017784;28;20037;-74
2022/08/03 01:20:55;;;;;;;8.98;2.70;;;;;;;;;;5029477;28;20044;-76
2022/08/03 01:23:20;;;;;;;7.93;2.92;;;;;;;;;;5033011;28;20033;-76
2022/08/03 01:26:01;;;;;;;9.40;2.80;;;;;;;;;;5033852;28;20043;-78
2022/08/03 01:28:44;;;;;;;10.40;2.50;;;;;;;;;;5033405;28;20026;-77
2022/08/03 01:31:10;;;;;;;7.32;1.88;;;;;;;;;;5048751;28;20024;-78
2022/08/03 01:33:41;;;;;;;10.32;2.95;;;;;;;;;;5032729;28;20045;-77
2022/08/03 01:36:08;;;;;;;5.65;2.70;;;;;;;;;;5033953;28;20022;-77
2022/08/03 01:38:49;;;;;;;11.07;2.75;;;;;;;;;;5031608;28;20035;-75
2022/08/03 01:41:19;;;;;;;6.40;2.65;;;;;;;;;;5031503;28;20387;-76
2022/08/03 01:43:48;;;;;;;7.07;2.45;;;;;;;;;;5029916;28;20029;-75
2022/08/03 01:46:14;;;;;;;9.52;2.50;;;;;;;;;;5019755;28;20024;-78
2022/08/03 01:48:40;;;;;;;10.05;3.03;;;;;;;;;;5051315;28;20539;-77
2022/08/03 01:51:07;;;;;;;5.43;2.47;;;;;;;;;;5034569;28;20385;-75
2022/08/03 01:53:37;;;;;;;10.48;3.00;;;;;;;;;;5032093;28;20469;-76
2022/08/03 01:56:02;;;;;;;5.10;2.30;;;;;;;;;;5047156;28;20032;-77
2022/08/03 01:58:28;;;;;;;6.78;2.00;;;;;;;;;;5041768;28;20030;-77
2022/08/03 02:00:58;;;;;;;6.47;2.40;;;;;;;;;;5015826;28;20026;-76
2022/08/03 02:03:23;;;;;;;7.18;2.72;;;;;;;;;;5031698;28;20037;-73
2022/08/03 02:05:49;;;;;;;11.95;2.60;;;;;;;;;;5031194;28;20037;-77
2022/08/03 02:08:16;;;;;;;6.57;2.65;;;;;;;;;;5032542;28;20508;-77
2022/08/03 02:10:45;;;;;;;2.75;1.70;;;;;;;;;;5033078;28;20117;-75
2022/08/03 02:13:11;;;;;;;6.75;2.53;;;;;;;;;;5037348;28;20228;-77
2022/08/03 02:15:37;;;;;;;7.25;2.58;;;;;;;;;;5040023;28;20457;-74
2022/08/03 02:18:04;;;;;;;6.43;2.30;;;;;;;;;;5032052;28;20478;-75
2022/08/03 02:20:31;;;;;;;5.40;2.40;;;;;;;;;;5033631;28;20025;-76
2022/08/03 02:22:57;;;;;;;7.40;2.08;;;;;;;;;;5047904;28;20036;-75
2022/08/03 02:25:22;;;;;;;4.38;2.30;;;;;;;;;;5031404;28;20022;-74
2022/08/03 02:27:51;;;;;;;6.25;2.30;;;;;;;;;;5027754;28;20017;-74
2022/08/03 02:30:16;;;;;;;7.88;2.38;;;;;;;;;;5048036;28;20121;-74
2022/08/03 02:32:44;;;;;;;6.25;2.60;;;;;;;;;;5031656;28;20693;-76
2022/08/03 02:35:14;;;;;;;9.98;3.28;;;;;;;;;;5047690;28;20351;-77
2022/08/03 02:37:47;;;;;;;7.72;2.40;;;;;;;;;;5032206;28;20485;-76
2022/08/03 02:40:14;;;;;;;8.23;2.90;;;;;;;;;;5031941;28;20025;-76
2022/08/03 02:42:40;;;;;;;6.03;1.95;;;;;;;;;;5012824;28;20026;-77
2022/08/03 02:45:06;;;;;;;10.73;2.33;;;;;;;;;;5011365;28;20061;-74
2022/08/03 02:47:34;;;;;;;6.50;2.03;;;;;;;;;;5041015;28;20029;-75
2022/08/03 02:50:00;;;;;;;8.23;2.50;;;;;;;;;;5032884;28;20021;-76
2022/08/03 02:52:27;;;;;;;4.20;2.13;;;;;;;;;;5031311;28;20033;-77
2022/08/03 02:54:55;;;;;;;7.45;2.20;;;;;;;;;;5028478;28;20334;-78
2022/08/03 02:57:20;;;;;;;4.60;2.20;;;;;;;;;;5045593;28;20129;-77
2022/08/03 02:59:46;;;;;;;7.07;2.60;;;;;;;;;;5031852;28;20298;-77
2022/08/03 03:02:13;;;;;;;7.97;2.67;;;;;;;;;;5031875;28;20385;-76
2022/08/03 03:04:39;;;;;;;8.43;2.03;;;;;;;;;;5031552;28;20045;-76
2022/08/03 03:07:04;;;;;;;9.18;2.50;;;;;;;;;;5032520;28;20558;-75
2022/08/03 03:09:30;;;;;;;9.38;2.53;;;;;;;;;;5022653;28;20068;-77
2022/08/03 03:11:56;;;;;;;10.35;2.97;;;;;;;;;;5014184;28;20026;-75
2022/08/03 03:14:21;;;;;;;6.47;2.47;;;;;;;;;;5038767;28;20117;-76
2022/08/03 03:16:47;;;;;;;7.28;2.25;;;;;;;;;;5034942;28;20416;-77
2022/08/03 03:19:13;;;;;;;4.30;2.15;;;;;;;;;;5037531;28;20036;-75
2022/08/03 03:21:38;;;;;;;7.60;2.75;;;;;;;;;;5030568;28;20094;-74
2022/08/03 03:24:04;;;;;;;7.22;2.97;;;;;;;;;;5028440;28;20389;-75
2022/08/03 03:26:29;;;;;;;9.85;2.67;;;;;;;;;;5031632;28;20094;-77
2022/08/03 03:28:55;;;;;;;5.22;2.95;;;;;;;;;;5046596;28;20030;-77
2022/08/03 03:31:20;;;;;;;6.93;2.28;;;;;;;;;;5031735;28;20021;-77
2022/08/03 03:33:46;;;;;;;6.20;2.20;;;;;;;;;;5029904;28;20171;-75
2022/08/03 03:36:11;;;;;;;8.45;2.95;;;;;;;;;;5030691;28;20037;-74
2022/08/03 03:38:36;;;;;;;8.90;2.90;;;;;;;;;;5031314;28;20057;-76
2022/08/03 03:41:03;;;;;;;6.78;2.47;;;;;;;;;;5031815;28;20442;-76
2022/08/03 03:43:28;;;;;;;7.05;2.33;;;;;;;;;;5030842;28;20035;-76
2022/08/03 03:45:53;;;;;;;8.57;2.65;;;;;;;;;;5031713;28;20034;-76
2022/08/03 03:48:19;;;;;;;8.55;2.65;;;;;;;;;;5051342;28;20088;-75
2022/08/03 03:50:44;;;;;;;8.68;3.55;;;;;;;;;;5049719;28;20033;-77
2022/08/03 03:53:10;;;;;;;5.85;2.60;;;;;;;;;;5012390;28;20018;-76
2022/08/03 03:55:37;;;;;;;9.73;3.10;;;;;;;;;;5041364;28;20107;-75
2022/08/03 03:58:02;;;;;;;6.60;2.83;;;;;;;;;;5040740;28;20033;-75
2022/08/03 04:00:28;;;;;;;7.10;3.20;;;;;;;;;;5031949;28;20026;-76
2022/08/03 04:02:56;;;;;;;4.47;2.08;;;;;;;;;;5031058;28;20041;-76
2022/08/03 04:11:01;;;;;;;11.82;3.78;;;;;;;;;;5015249;28;20246;-76
2022/08/03 04:13:32;;;;;;;10.60;2.85;;;;;;;;;;5022858;28;20380;-76
2022/08/03 04:16:01;;;;;;;6.97;2.45;;;;;;;;;;5050561;28;20029;-77
2022/08/03 04:18:28;;;;;;;7.55;2.90;;;;;;;;;;5034866;28;20029;-74
2022/08/03 04:20:54;;;;;;;14.48;3.03;;;;;;;;;;5033947;28;20395;-76
2022/08/03 04:23:21;;;;;;;6.38;2.75;;;;;;;;;;5050212;28;20038;-78
2022/08/03 04:25:47;;;;;;;7.18;3.60;;;;;;;;;;5034913;28;20029;-77
2022/08/03 04:28:14;;;;;;;7.15;2.78;;;;;;;;;;5034169;28;20037;-78
2022/08/03 04:30:46;;;;;;;7.32;2.85;;;;;;;;;;5049645;28;20018;-76
2022/08/03 04:33:11;;;;;;;8.48;2.72;;;;;;;;;;5033051;28;20104;-75
2022/08/03 04:35:36;;;;;;;8.52;3.58;;;;;;;;;;5019065;28;20597;-74
2022/08/03 04:38:05;;;;;;;6.30;3.28;;;;;;;;;;5049196;28;20021;-74
2022/08/03 04:40:32;;;;;;;12.10;3.45;;;;;;;;;;5033613;28;20033;-76
2022/08/03 04:42:58;;;;;;;4.97;2.67;;;;;;;;;;5033262;28;20033;-74
2022/08/03 04:45:24;;;;;;;9.70;3.15;;;;;;;;;;5050317;28;20032;-74
2022/08/03 04:47:49;;;;;;;9.60;3.40;;;;;;;;;;5039297;28;20110;-76
2022/08/03 04:50:15;;;;;;;9.10;2.92;;;;;;;;;;5024194;28;20031;-74
2022/08/03 04:52:40;;;;;;;14.45;4.20;;;;;;;;;;5034616;28;20034;-75
2022/08/03 04:55:05;;;;;;;8.20;2.65;;;;;;;;;;5055954;28;20010;-76
2022/08/03 04:57:31;;;;;;;8.48;3.08;;;;;;;;;;5049377;28;20041;-75
2022/08/03 04:59:56;;;;;;;9.30;3.10;;;;;;;;;;5033993;28;20094;-74
2022/08/03 05:02:22;;;;;;;17.40;3.85;;;;;;;;;;5024491;28;20044;-75
2022/08/03 05:04:47;;;;;;;5.18;2.90;;;;;;;;;;5029992;28;20045;-75
2022/08/03 05:07:13;;;;;;;14.48;3.78;;;;;;;;;;5033881;28;20040;-75
2022/08/03 05:09:41;;;;;;;6.28;3.33;;;;;;;;;;5048626;28;20029;-76
2022/08/03 05:12:10;;;;;;;6.57;3.42;;;;;;;;;;5033866;28;20353;-74
2022/08/03 05:14:37;;;;;;;9.65;3.45;;;;;;;;;;5033200;28;20116;-76
2022/08/03 05:17:03;;;;;;;8.02;4.10;;;;;;;;;;5049110;28;20033;-76
2022/08/03 05:19:29;;;;;;;6.85;2.70;;;;;;;;;;5031918;28;20044;-76
2022/08/03 05:21:54;;;;;;;8.27;2.63;;;;;;;;;;5033814;28;20029;-75
2022/08/03 05:24:19;;;;;;;13.82;4.07;;;;;;;;;;5034018;28;20033;-77
2022/08/03 05:26:45;;;;;;;9.10;4.30;;;;;;;;;;5034207;28;20544;-74
2022/08/03 05:29:13;;;;;;;9.23;4.88;;;;;;;;;;5034161;28;20349;-75
2022/08/03 05:31:39;;;;;;;6.43;4.05;;;;;;;;;;5031007;28;20450;-74
2022/08/03 05:34:04;;;;;;;8.05;3.40;;;;;;;;;;5048623;28;20032;-75
2022/08/03 05:36:29;;;;;;;10.82;3.88;;;;;;;;;;5034166;28;20029;-77
2022/08/03 05:38:55;;;;;;;7.70;4.03;;;;;;;;;;5049011;28;20029;-75
2022/08/03 05:41:20;;;;;;;12.70;4.07;;;;;;;;;;5034327;28;20025;-75
2022/08/03 05:43:45;;;;;;;11.68;3.70;;;;;;;;;;5033072;28;20218;-75
2022/08/03 05:46:13;;;;;;;14.70;4.10;;;;;;;;;;5034058;28;20022;-77
2022/08/03 05:48:38;;;;;;;9.68;4.88;;;;;;;;;;5049118;28;20402;-76
2022/08/03 05:51:06;;;;;;;8.43;3.08;;;;;;;;;;5033545;28;20013;-75
2022/08/03 05:53:34;;;;;;;11.38;4.03;;;;;;;;;;5051177;28;20033;-77
2022/08/03 05:56:00;;;;;;;12.10;3.80;;;;;;;;;;5047498;28;20037;-75
2022/08/03 05:58:25;;;;;;;13.88;4.82;;;;;;;;;;5032163;28;20048;-75
2022/08/03 06:00:53;;;;;;;8.73;3.23;;;;;;;;;;5031783;28;20478;-77
2022/08/03 06:03:19;;;;;;;21.25;6.32;;;;;;;;;;5013712;28;20679;-76
2022/08/03 06:05:45;;;;;;;14.00;4.18;;;;;;;;;;5040672;28;20148;-76
2022/08/03 06:08:10;;;;;;;11.30;3.28;;;;;;;;;;5033430;28;20483;-76
2022/08/03 06:10:35;;;;;;;9.43;5.03;;;;;;;;;;5034198;28;20010;-76
2022/08/03 06:13:00;;;;;;;15.15;4.22;;;;;;;;;;5032968;28;20018;-76
2022/08/03 06:15:26;;;;;;;9.82;3.55;;;;;;;;;;5033667;28;20056;-76
2022/08/03 06:17:56;;;;;;;17.05;4.25;;;;;;;;;;5031529;28;20114;-77
2022/08/03 06:20:21;;;;;;;12.77;4.32;;;;;;;;;;5032133;28;20448;-77
2022/08/03 06:22:47;;;;;;;16.42;3.83;;;;;;;;;;5032789;28;20030;-75
2022/08/03 06:25:12;;;;;;;9.38;2.90;;;;;;;;;;5033523;28;20434;-76
2022/08/03 06:27:39;;;;;;;15.07;4.20;;;;;;;;;;5048222;28;20052;-77
2022/08/03 06:30:05;;;;;;;11.95;4.18;;;;;;;;;;5032492;28;20390;-76
2022/08/03 06:32:30;;;;;;;16.65;3.95;;;;;;;;;;5032613;28;20113;-76
2022/08/03 06:34:55;;;;;;;10.90;3.93;;;;;;;;;;5049177;28;20426;-77
2022/08/03 06:37:20;;;;;;;15.55;5.47;;;;;;;;;;5032483;28;20347;-77
2022/08/03 06:39:45;;;;;;;16.13;4.30;;;;;;;;;;5048489;28;20083;-77
2022/08/03 06:42:11;;;;;;;12.47;4.57;;;;;;;;;;5031647;28;20029;-77
2022/08/03 06:44:37;;;;;;;19.42;3.92;;;;;;;;;;5049140;28;20266;-77
2022/08/03 06:47:02;;;;;;;11.30;3.75;;;;;;;;;;5032402;28;20033;-77
2022/08/03 06:49:31;;;;;;;10.13;3.78;;;;;;;;;;5031666;28;20027;-77
2022/08/03 06:51:59;;;;;;;17.83;5.80;;;;;;;;;;5032615;28;20037;-77
2022/08/03 06:54:27;;;;;;;15.50;5.47;;;;;;;;;;5048128;28;20022;-77
2022/08/03 06:56:55;;;;;;;15.50;6.05;;;;;;;;;;5037544;28;20033;-76
2022/08/03 06:59:20;;;;;;;17.50;4.82;;;;;;;;;;5031039;28;20039;-77
2022/08/03 07:01:46;;;;;;;19.70;6.32;;;;;;;;;;5043569;28;20038;-76
2022/08/03 07:04:11;;;;;;;26.60;4.78;;;;;;;;;;5011610;28;20581;-76
2022/08/03 07:06:37;;;;;;;11.45;4.90;;;;;;;;;;5031765;28;20033;-78
2022/08/03 07:09:02;;;;;;;12.65;4.85;;;;;;;;;;5031532;28;20061;-75
2022/08/03 07:11:27;;;;;;;14.30;4.30;;;;;;;;;;5032083;28;20021;-75
2022/08/03 07:13:52;;;;;;;18.55;4.38;;;;;;;;;;5028728;28;20052;-77
2022/08/03 07:16:18;;;;;;;12.85;4.60;;;;;;;;;;5017684;28;20124;-76
2022/08/03 07:18:44;;;;;;;17.17;4.25;;;;;;;;;;5042950;28;20635;-76
2022/08/03 07:21:09;;;;;;;13.65;4.00;;;;;;;;;;5032289;28;20068;-74
2022/08/03 07:23:35;;;;;;;17.33;5.50;;;;;;;;;;5031814;28;20068;-74
2022/08/03 07:26:00;;;;;;;20.90;5.88;;;;;;;;;;5031173;28;20080;-76
2022/08/03 07:28:25;;;;;;;16.40;4.60;;;;;;;;;;5046955;28;20033;-75
2022/08/03 07:30:51;;;;;;;16.02;4.55;;;;;;;;;;5031772;28;20453;-76
2022/08/03 07:33:16;;;;;;;20.02;5.28;;;;;;;;;;5030838;28;20026;-74
2022/08/03 07:35:41;;;;;;;11.20;3.92;;;;;;;;;;5032522;28;20368;-75
2022/08/03 07:38:07;;;;;;;11.37;4.50;;;;;;;;;;5032095;28;20025;-74
2022/08/03 07:40:32;;;;;;;11.00;3.60;;;;;;;;;;5031699;28;20733;-75
2022/08/03 07:42:58;;;;;;;11.45;4.18;;;;;;;;;;5032659;28;20034;-76
2022/08/03 07:45:25;;;;;;;13.75;4.90;;;;;;;;;;5036038;28;20025;-77
2022/08/03 07:47:50;;;;;;;14.52;4.07;;;;;;;;;;5036030;28;20536;-76
2022/08/03 07:50:15;;;;;;;17.65;4.20;;;;;;;;;;5049932;28;20033;-76
2022/08/03 07:52:46;;;;;;;16.88;4.97;;;;;;;;;;5035829;28;20072;-78
2022/08/03 07:55:11;;;;;;;17.02;4.53;;;;;;;;;;5051023;28;20033;-74
2022/08/03 07:57:37;;;;;;;12.70;4.18;;;;;;;;;;5035133;28;20049;-73
2022/08/03 08:00:09;;;;;;;16.60;4.40;;;;;;;;;;5034734;28;20112;-74
2022/08/03 08:02:35;;;;;;;10.48;3.60;;;;;;;;;;5025893;28;20037;-76
2022/08/03 08:05:00;;;;;;;15.18;4.47;;;;;;;;;;5035084;28;20472;-75
2022/08/03 08:07:25;;;;;;;9.43;3.50;;;;;;;;;;5034780;28;20033;-76
2022/08/03 08:09:50;;;;;;;17.98;4.65;;;;;;;;;;5035024;28;20273;-74
2022/08/03 08:12:16;;;;;;;14.77;4.13;;;;;;;;;;5049862;28;20491;-77
2022/08/03 08:14:44;;;;;;;13.45;3.53;;;;;;;;;;5035117;28;20022;-76
2022/08/03 08:17:09;;;;;;;19.08;5.05;;;;;;;;;;5034469;28;20436;-75
2022/08/03 08:19:34;;;;;;;28.52;5.85;;;;;;;;;;5034713;28;20021;-75
2022/08/03 08:22:00;;;;;;;14.67;3.87;;;;;;;;;;5049676;28;20069;-73
2022/08/03 08:24:25;;;;;;;11.02;3.88;;;;;;;;;;5050188;28;20271;-74
2022/08/03 08:26:50;;;;;;;16.10;4.20;;;;;;;;;;5034827;28;20163;-76
2022/08/03 08:29:15;;;;;;;14.48;3.83;;;;;;;;;;5032688;28;20029;-73
2022/08/03 08:31:40;;;;;;;15.07;3.70;;;;;;;;;;5030908;28;20021;-75
2022/08/03 08:34:06;;;;;;;10.97;4.13;;;;;;;;;;5015417;28;20018;-76
2022/08/03 08:36:32;;;;;;;13.70;4.18;;;;;;;;;;5046646;28;20643;-76
2022/08/03 08:38:57;;;;;;;16.85;4.13;;;;;;;;;;5049476;28;20099;-76
2022/08/03 08:41:22;;;;;;;13.88;4.82;;;;;;;;;;5050024;28;21250;-77
2022/08/03 08:43:48;;;;;;;16.03;4.53;;;;;;;;;;5034019;28;20029;-78
2022/08/03 08:46:13;;;;;;;11.15;3.40;;;;;;;;;;5034993;28;20287;-75
2022/08/03 08:48:40;;;;;;;11.60;3.30;;;;;;;;;;5034733;28;20067;-75
2022/08/03 08:51:07;;;;;;;13.27;5.93;;;;;;;;;;5035409;28;20025;-78
2022/08/03 08:53:34;;;;;;;15.82;5.55;;;;;;;;;;5035435;28;20044;-75
2022/08/03 08:56:01;;;;;;;13.25;4.35;;;;;;;;;;5041078;28;20036;-77
2022/08/03 08:58:28;;;;;;;13.88;3.70;;;;;;;;;;5034726;28;20033;-76
2022/08/03 09:00:53;;;;;;;12.52;4.00;;;;;;;;;;5017534;28;20033;-77
2022/08/03 09:03:19;;;;;;;18.08;4.57;;;;;;;;;;5049245;28;20390;-78
2022/08/03 09:05:45;;;;;;;16.05;3.90;;;;;;;;;;5034989;28;20026;-75
2022/08/03 09:08:10;;;;;;;14.18;5.05;;;;;;;;;;5034305;28;20036;-77
2022/08/03 09:10:35;;;;;;;18.17;4.97;;;;;;;;;;5034802;28;20389;-77
2022/08/03 09:13:00;;;;;;;17.97;4.20;;;;;;;;;;5034447;28;20017;-77
2022/08/03 09:15:27;;;;;;;14.38;4.55;;;;;;;;;;5034303;28;20747;-76
2022/08/03 09:17:56;;;;;;;12.68;4.80;;;;;;;;;;5035225;28;20032;-76
2022/08/03 09:20:26;;;;;;;16.75;4.20;;;;;;;;;;5034586;28;20017;-76
2022/08/03 09:22:56;;;;;;;14.32;4.55;;;;;;;;;;5034169;28;20397;-77
2022/08/03 09:25:31;;;;;;;13.52;3.78;;;;;;;;;;5035102;28;20024;-75
2022/08/03 09:28:04;;;;;;;14.68;4.45;;;;;;;;;;5034102;28;20036;-77
2022/08/03 09:30:30;;;;;;;11.18;3.72;;;;;;;;;;5034049;28;20064;-78
2022/08/03 09:33:02;;;;;;;13.80;4.35;;;;;;;;;;5034395;28;20052;-76
2022/08/03 09:35:27;;;;;;;;;;;;;;;;;;5034928;28;20502;-78
2022/08/03 09:38:09;;;;;;;17.60;4.63;;;;;;;;;;5049749;28;20345;-78
2022/08/03 09:40:35;;;;;;;17.23;4.00;;;;;;;;;;5034260;28;20026;-78
2022/08/03 09:43:00;;;;;;;23.05;5.07;;;;;;;;;;5032615;28;20009;-76
2022/08/03 09:45:26;;;;;;;14.43;3.65;;;;;;;;;;5034068;28;20512;-77
2022/08/03 09:47:56;;;;;;;19.15;5.45;;;;;;;;;;5032858;28;20034;-77
2022/08/03 09:50:24;;;;;;;13.65;4.03;;;;;;;;;;5034401;28;20491;-78
2022/08/03 09:52:50;;;;;;;18.73;3.80;;;;;;;;;;5033954;28;20052;-78
2022/08/03 09:55:15;;;;;;;15.45;3.60;;;;;;;;;;5036254;28;20131;-77
2022/08/03 09:57:45;;;;;;;16.83;3.97;;;;;;;;;;5049171;28;20071;-76
2022/08/03 10:00:11;;;;;;;16.13;4.78;;;;;;;;;;5033925;28;20085;-76
2022/08/03 10:02:37;;;;;;;17.08;4.85;;;;;;;;;;5033688;28;20045;-77
2022/08/03 10:05:04;;;;;;;15.00;4.28;;;;;;;;;;5048303;28;20065;-77
2022/08/03 10:07:41;;;;;;;18.42;3.83;;;;;;;;;;5037646;28;20025;-77
2022/08/03 10:10:06;;;;;;;22.05;5.20;;;;;;;;;;5016081;28;20045;-76
2022/08/03 10:12:31;;;;;;;18.33;5.10;;;;;;;;;;5013701;28;20418;-76
2022/08/03 10:15:00;;;;;;;14.75;3.45;;;;;;;;;;5032873;28;20049;-76
2022/08/03 10:17:25;;;;;;;17.23;3.67;;;;;;;;;;5032520;28;20033;-77
2022/08/03 10:19:50;;;;;;;14.73;3.63;;;;;;;;;;5033392;28;20104;-77
2022/08/03 10:22:18;;;;;;;12.93;3.42;;;;;;;;;;5033523;28;20068;-77
2022/08/03 10:24:55;;;;;;;15.55;4.00;;;;;;;;;;5033544;28;20029;-77
2022/08/03 10:27:21;;;;;;;12.82;3.33;;;;;;;;;;5032080;28;20030;-76
2022/08/03 10:29:50;;;;;;;16.00;3.85;;;;;;;;;;5045338;28;20113;-77
2022/08/03 10:32:35;;;;;;;14.70;3.72;;;;;;;;;;5030171;28;20021;-75
2022/08/03 10:35:03;;;;;;;22.15;5.03;;;;;;;;;;5023693;28;20026;-76
2022/08/03 10:37:29;;;;;;;16.08;3.38;;;;;;;;;;5033244;28;20060;-75
2022/08/03 10:39:56;;;;;;;14.88;3.08;;;;;;;;;;5033002;28;20021;-75
2022/08/03 10:42:22;;;;;;;21.08;4.10;;;;;;;;;;5031266;28;20052;-76
2022/08/03 10:44:48;;;;;;;24.08;4.85;;;;;;;;;;5031309;28;20073;-77
2022/08/03 10:47:13;;;;;;;18.63;3.42;;;;;;;;;;5033170;28;20512;-76
2022/08/03 10:49:39;;;;;;;21.25;5.05;;;;;;;;;;5032054;28;20025;-75
2022/08/03 10:52:05;;;;;;;13.73;4.30;;;;;;;;;;5031890;28;20040;-76
2022/08/03 10:54:36;;;;;;;17.35;4.32;;;;;;;;;;5033470;28;20120;-77
2022/08/03 10:59:44;;;;;;;19.08;3.53;;;;;;;;;;5033367;28;20044;-77
2022/08/03 11:02:11;;;;;;;17.77;3.83;;;;;;;;;;5032610;28;20108;-77
2022/08/03 11:04:39;;;;;;;16.23;3.22;;;;;;;;;;5032152;28;20485;-77
2022/08/03 11:07:20;;;;;;;22.45;4.68;;;;;;;;;;5031750;28;20397;-76
2022/08/03 11:09:47;;;;;;;20.45;4.55;;;;;;;;;;5032601;28;20021;-77
2022/08/03 11:12:23;;;;;;;21.85;5.55;;;;;;;;;;5032323;28;20025;-77
2022/08/03 11:14:49;;;;;;;18.90;4.15;;;;;;;;;;5035075;28;20444;-77
2022/08/03 11:17:14;;;;;;;25.25;4.57;;;;;;;;;;5051675;28;20455;-76
2022/08/03 11:19:46;;;;;;;17.20;4.28;;;;;;;;;;5037497;28;20021;-76
2022/08/03 11:22:12;;;;;;;13.18;3.70;;;;;;;;;;5036929;28;20045;-76
2022/08/03 11:24:42;;;;;;;17.73;3.85;;;;;;;;;;5036929;28;20035;-77
2022/08/03 11:27:13;;;;;;;11.07;3.38;;;;;;;;;;5034484;28;20032;-77
2022/08/03 11:29:58;;;;;;;16.23;3.85;;;;;;;;;;5036817;28;20017;-76
2022/08/03 11:32:50;;;;;;;14.10;3.90;;;;;;;;;;5044173;28;20025;-77
2022/08/03 11:35:16;;;;;;;15.88;3.83;;;;;;;;;;5017021;28;20562;-77
2022/08/03 11:37:57;;;;;;;19.83;4.28;;;;;;;;;;5023434;28;20029;-78
2022/08/03 11:40:40;;;;;;;16.38;4.10;;;;;;;;;;5036468;28;20056;-76
2022/08/03 11:43:27;;;;;;;15.13;3.88;;;;;;;;;;5050487;28;20030;-76
2022/08/03 11:46:05;;;;;;;19.88;4.25;;;;;;;;;;5031933;28;20045;-77
2022/08/03 11:48:33;;;;;;;21.90;4.32;;;;;;;;;;5036238;28;20024;-76
2022/08/03 11:51:02;;;;;;;18.45;3.90;;;;;;;;;;5029569;28;20093;-78
2022/08/03 11:53:27;;;;;;;12.50;4.13;;;;;;;;;;5035251;28;20021;-77
2022/08/03 11:55:52;;;;;;;20.70;3.80;;;;;;;;;;5042084;28;20116;-78
2022/08/03 11:58:18;;;;;;;20.08;4.63;;;;;;;;;;5034125;28;20024;-77
2022/08/03 12:00:44;;;;;;;15.00;3.30;;;;;;;;;;5036570;28;20420;-78
2022/08/03 12:03:10;;;;;;;12.25;3.85;;;;;;;;;;5034813;28;20041;-78
2022/08/03 12:05:40;;;;;;;18.45;4.68;;;;;;;;;;5051269;28;20026;-77
2022/08/03 12:08:06;;;;;;;11.18;3.45;;;;;;;;;;5035470;28;20551;-76
2022/08/03 12:10:32;;;;;;;11.90;4.03;;;;;;;;;;5035018;28;20040;-76
2022/08/03 12:12:58;;;;;;;13.18;2.85;;;;;;;;;;5035546;28;20014;-76
2022/08/03 12:15:27;;;;;;;13.60;4.28;;;;;;;;;;5036127;28;20037;-77
2022/08/03 12:17:53;;;;;;;14.00;3.88;;;;;;;;;;5035598;28;20124;-76
2022/08/03 12:20:25;;;;;;;16.48;4.03;;;;;;;;;;5051178;28;20461;-77
2022/08/03 12:22:50;;;;;;;17.92;3.78;;;;;;;;;;5036056;28;20021;-76
2022/08/03 12:25:23;;;;;;;18.88;3.78;;;;;;;;;;5035748;28;20044;-76
2022/08/03 12:27:49;;;;;;;17.40;5.28;;;;;;;;;;5033725;28;20108;-76
2022/08/03 12:30:14;;;;;;;11.65;3.22;;;;;;;;;;5035660;28;20426;-76
2022/08/03 12:32:41;;;;;;;14.48;3.03;;;;;;;;;;5035087;28;20036;-78
2022/08/03 12:35:07;;;;;;;15.20;4.28;;;;;;;;;;5035824;28;20036;-77
2022/08/03 12:37:32;;;;;;;16.10;3.80;;;;;;;;;;5050758;28;20029;-77
2022/08/03 12:40:00;;;;;;;13.85;3.45;;;;;;;;;;5035288;28;20428;-77
2022/08/03 12:42:35;;;;;;;15.60;3.85;;;;;;;;;;5033138;28;20045;-76
2022/08/03 12:45:19;;;;;;;17.23;4.47;;;;;;;;;;5034977;28;20452;-77
2022/08/03 12:47:56;;;;;;;10.88;3.28;;;;;;;;;;5034006;28;20501;-76
2022/08/03 12:50:25;;;;;;;16.30;4.28;;;;;;;;;;5035058;28;20017;-77
2022/08/03 12:52:50;;;;;;;18.17;5.30;;;;;;;;;;5034515;28;20029;-76
2022/08/03 12:55:18;;;;;;;18.02;3.28;;;;;;;;;;5042018;28;20022;-76
2022/08/03 12:57:44;;;;;;;15.80;5.18;;;;;;;;;;5034905;28;20029;-76
2022/08/03 13:00:10;;;;;;;10.40;3.33;;;;;;;;;;5034835;28;20033;-77
2022/08/03 13:02:35;;;;;;;15.48;4.43;;;;;;;;;;5033743;28;20053;-77
2022/08/03 13:05:08;;;;;;;17.48;3.72;;;;;;;;;;5034398;28;20073;-76
2022/08/03 13:07:39;;;;;;;13.45;3.53;;;;;;;;;;5034511;28;20041;-78
2022/08/03 13:10:05;;;;;;;20.43;5.40;;;;;;;;;;5033283;28;20025;-77
2022/08/03 13:12:31;;;;;;;15.18;3.55;;;;;;;;;;5029783;28;20026;-77
2022/08/03 13:14:59;;;;;;;11.85;3.60;;;;;;;;;;5046863;28;20025;-77
2022/08/03 13:17:28;;;;;;;17.92;3.50;;;;;;;;;;5056286;28;20029;-77
2022/08/03 13:19:55;;;;;;;15.15;3.58;;;;;;;;;;5034703;28;20033;-77
2022/08/03 13:22:29;;;;;;;18.35;3.05;;;;;;;;;;5034789;28;20396;-78
2022/08/03 13:24:56;;;;;;;14.93;3.33;;;;;;;;;;5034403;28;20018;-77
2022/08/03 13:27:22;;;;;;;12.35;3.25;;;;;;;;;;5033951;28;20040;-77
2022/08/03 13:29:47;;;;;;;9.32;2.92;;;;;;;;;;5034507;28;20100;-77
2022/08/03 13:32:12;;;;;;;17.75;4.78;;;;;;;;;;5048655;28;20512;-78
2022/08/03 13:34:38;;;;;;;10.77;3.15;;;;;;;;;;5038846;28;20473;-76
2022/08/03 13:37:03;;;;;;;10.05;3.25;;;;;;;;;;5033172;28;20359;-77
2022/08/03 13:39:28;;;;;;;12.75;2.95;;;;;;;;;;5034137;28;20489;-77
2022/08/03 13:41:53;;;;;;;15.75;3.75;;;;;;;;;;5048160;28;20172;-77
2022/08/03 13:44:19;;;;;;;11.77;2.97;;;;;;;;;;5034051;28;20071;-77
2022/08/03 13:46:45;;;;;;;9.93;3.08;;;;;;;;;;5049509;28;20075;-77
2022/08/03 13:49:10;;;;;;;15.95;3.78;;;;;;;;;;5034760;28;20033;-77
2022/08/03 13:51:35;;;;;;;14.63;3.42;;;;;;;;;;5032744;28;20032;-77
2022/08/03 13:54:01;;;;;;;9.23;3.33;;;;;;;;;;5034966;28;20096;-77
2022/08/03 13:56:26;;;;;;;11.55;2.90;;;;;;;;;;5040275;28;20390;-77
2022/08/03 13:58:52;;;;;;;9.65;3.38;;;;;;;;;;5033596;28;20040;-77
2022/08/03 14:01:17;;;;;;;6.40;2.50;;;;;;;;;;5033771;28;20385;-76
2022/08/03 14:03:42;;;;;;;9.60;2.50;;;;;;;;;;5056827;28;20056;-77
2022/08/03 14:06:08;;;;;;;11.05;2.90;;;;;;;;;;5032457;28;20029;-77
2022/08/03 14:08:33;;;;;;;5.85;2.13;;;;;;;;;;5049658;28;20037;-77
2022/08/03 14:10:58;;;;;;;11.32;3.38;;;;;;;;;;5033278;28;20017;-78
2022/08/03 14:13:24;;;;;;;7.32;2.60;;;;;;;;;;5032721;28;20029;-78
2022/08/03 14:15:50;;;;;;;7.63;2.90;;;;;;;;;;5049576;28;20354;-77
2022/08/03 14:18:16;;;;;;;8.30;2.80;;;;;;;;;;5032946;28;20361;-78
2022/08/03 14:20:42;;;;;;;7.88;3.20;;;;;;;;;;5033553;28;20006;-78
2022/08/03 14:23:11;;;;;;;7.28;2.38;;;;;;;;;;5037003;28;20025;-77
2022/08/03 14:25:36;;;;;;;8.57;3.15;;;;;;;;;;5034131;28;20044;-78
2022/08/03 14:28:01;;;;;;;13.02;3.92;;;;;;;;;;5032365;28;20053;-78
2022/08/03 14:30:30;;;;;;;9.18;3.35;;;;;;;;;;5048876;28;20440;-77
2022/08/03 14:32:55;;;;;;;12.25;3.70;;;;;;;;;;5032177;28;20037;-77
2022/08/03 14:35:21;;;;;;;11.03;4.07;;;;;;;;;;5049078;28;20500;-77
2022/08/03 14:37:46;;;;;;;13.35;3.63;;;;;;;;;;5034058;28;20263;-78
2022/08/03 14:40:11;;;;;;;8.10;3.50;;;;;;;;;;5065573;28;20021;-77
2022/08/03 14:42:37;;;;;;;10.27;3.60;;;;;;;;;;5031950;28;20033;-78
2022/08/03 14:45:03;;;;;;;7.95;4.00;;;;;;;;;;5033287;28;20271;-78